Time;durP1;ratioP1;P1;durP2;ratioP2;P2;SDS_P1;SDS_P2;PMS_P1;PMS_P2;Temp;Humidity;BMP_temperature;BMP_pressure;BME280_temperature;BME280_humidity;BME280_pressure;Samples;Min_cycle;Max_cycle;Signal;HPM_P1;HPM_P2
2023/07/02 00:00:38;;;;;;;;;;;;;;;;;;4990599;28;8756;-83
2023/07/02 00:03:04;;;;;;;;;;;;;;;;;;5005884;28;7159;-83
2023/07/02 00:05:30;;;;;;;;;;;;;;;;;;5009580;28;8635;-83
2023/07/02 00:07:56;;;;;;;;;;;;;;;;;;5009602;28;7016;-84
2023/07/02 00:10:21;;;;;;;;;;;;;;;;;;5155800;23;8401;-83
2023/07/02 00:12:47;;;;;;;;;;;;;;;;;;4916028;29;8688;-84
2023/07/02 00:15:12;;;;;;;;;;;;;;;;;;4917106;29;7021;-84
2023/07/02 00:17:39;;;;;;;;;;;;;;;;;;4916542;29;8369;-84
2023/07/02 00:20:06;;;;;;;;;;;;;;;;;;4916843;29;7227;-84
2023/07/02 00:22:36;;;;;;;;;;;;;;;;;;4916317;29;7326;-85
2023/07/02 00:25:01;;;;;;;;;;;;;;;;;;4916389;29;6881;-85
2023/07/02 00:27:27;;;;;;;;;;;;;;;;;;4916201;29;8692;-84
2023/07/02 00:29:52;;;;;;;;;;;;;;;;;;4916182;29;8314;-84
2023/07/02 00:32:18;;;;;;;;;;;;;;;;;;4916552;29;7029;-84
2023/07/02 00:34:43;;;;;;;;;;;;;;;;;;4916108;29;7139;-84
2023/07/02 00:37:09;;;;;;;;;;;;;;;;;;4916807;29;8434;-84
2023/07/02 00:39:35;;;;;;;;;;;;;;;;;;4916149;29;8845;-83
2023/07/02 00:42:04;;;;;;;;;;;;;;;;;;4915930;29;8368;-83
2023/07/02 00:44:30;;;;;;;;;;;;;;;;;;4915898;29;7205;-84
2023/07/02 00:46:55;;;;;;;;;;;;;;;;;;4916198;29;7151;-83
2023/07/02 00:49:21;;;;;;;;;;;;;;;;;;4915933;29;8543;-84
2023/07/02 00:51:46;;;;;;;;;;;;;;;;;;4916504;29;7165;-83
2023/07/02 00:54:12;;;;;;;;;;;;;;;;;;4916086;29;7243;-83
2023/07/02 00:56:38;;;;;;;;;;;;;;;;;;4915837;29;7202;-83
2023/07/02 00:59:04;;;;;;;;;;;;;;;;;;4916347;29;7172;-84
2023/07/02 01:01:31;;;;;;;;;;;;;;;;;;4915802;29;9378;-84
2023/07/02 01:04:01;;;;;;;;;;;;;;;;;;4915696;29;8388;-84
2023/07/02 01:06:28;;;;;;;;;;;;;;;;;;4916134;29;8797;-83
2023/07/02 01:08:55;;;;;;;;;;;;;;;;;;4916196;29;8464;-85
2023/07/02 01:11:23;;;;;;;;;;;;;;;;;;4915957;29;8772;-85
2023/07/02 01:13:53;;;;;;;;;;;;;;;;;;4916014;29;8421;-85
2023/07/02 01:16:19;;;;;;;;;;;;;;;;;;4915795;29;8411;-84
2023/07/02 01:18:45;;;;;;;;;;;;;;;;;;4918387;29;8846;-85
2023/07/02 01:21:11;;;;;;;;;;;;;;;;;;4919405;29;7115;-85
2023/07/02 01:23:37;;;;;;;;;;;;;;;;;;4919594;29;8286;-85
2023/07/02 01:26:03;;;;;;;;;;;;;;;;;;4919559;29;8342;-85
2023/07/02 01:28:35;;;;;;;;;;;;;;;;;;4919371;29;8387;-85
2023/07/02 01:31:01;;;;;;;;;;;;;;;;;;4919524;29;7168;-85
2023/07/02 01:33:26;;;;;;;;;;;;;;;;;;4919875;29;8408;-85
2023/07/02 01:35:52;;;;;;;;;;;;;;;;;;4919479;29;8466;-85
2023/07/02 01:38:18;;;;;;;;;;;;;;;;;;4919475;29;7180;-85
2023/07/02 01:40:43;;;;;;;;;;;;;;;;;;4919687;29;8310;-88
2023/07/02 01:43:09;;;;;;;;;;;;;;;;;;4919604;29;8414;-87
2023/07/02 01:45:34;;;;;;;;;;;;;;;;;;4919126;29;8468;-87
2023/07/02 01:48:00;;;;;;;;;;;;;;;;;;4919628;29;8644;-87
2023/07/02 01:50:25;;;;;;;;;;;;;;;;;;4919142;29;8706;-85
2023/07/02 01:52:51;;;;;;;;;;;;;;;;;;4919016;29;8418;-85
2023/07/02 01:55:17;;;;;;;;;;;;;;;;;;4919211;29;8803;-85
2023/07/02 01:57:43;;;;;;;;;;;;;;;;;;4918761;29;7170;-85
2023/07/02 02:00:09;;;;;;;;;;;;;;;;;;4919249;29;7135;-85
2023/07/02 02:02:35;;;;;;;;;;;;;;;;;;4918898;29;8757;-85
2023/07/02 02:05:00;;;;;;;;;;;;;;;;;;4919105;29;8398;-85
2023/07/02 02:07:26;;;;;;;;;;;;;;;;;;4919044;29;7029;-85
2023/07/02 02:09:52;;;;;;;;;;;;;;;;;;4921998;29;7140;-85
2023/07/02 02:12:17;;;;;;;;;;;;;;;;;;4922036;29;7013;-85
2023/07/02 02:14:43;;;;;;;;;;;;;;;;;;4922015;29;8498;-91
2023/07/02 02:17:08;;;;;;;;;;;;;;;;;;4922109;29;7036;-85
2023/07/02 02:19:34;;;;;;;;;;;;;;;;;;4921955;29;7040;-85
2023/07/02 02:22:00;;;;;;;;;;;;;;;;;;4921383;29;7087;-85
2023/07/02 02:24:25;;;;;;;;;;;;;;;;;;4921918;29;8464;-85
2023/07/02 02:26:51;;;;;;;;;;;;;;;;;;4922091;29;7092;-85
2023/07/02 02:29:17;;;;;;;;;;;;;;;;;;4921527;29;8573;-84
2023/07/02 02:31:43;;;;;;;;;;;;;;;;;;4921555;29;8419;-85
2023/07/02 02:34:09;;;;;;;;;;;;;;;;;;4921414;29;7476;-85
2023/07/02 02:36:35;;;;;;;;;;;;;;;;;;4921309;29;7275;-85
2023/07/02 02:39:01;;;;;;;;;;;;;;;;;;4921900;29;7215;-85
2023/07/02 02:41:26;;;;;;;;;;;;;;;;;;4920972;29;8008;-85
2023/07/02 02:43:52;;;;;;;;;;;;;;;;;;4921493;29;8435;-85
2023/07/02 02:46:22;;;;;;;;;;;;;;;;;;4921418;29;8472;-85
2023/07/02 02:48:47;;;;;;;;;;;;;;;;;;4921858;29;7154;-85
2023/07/02 02:51:13;;;;;;;;;;;;;;;;;;4938183;29;7154;-85
2023/07/02 02:53:38;;;;;;;;;;;;;;;;;;4921334;29;7422;-84
2023/07/02 02:56:04;;;;;;;;;;;;;;;;;;4924721;28;8788;-84
2023/07/02 02:58:29;;;;;;;;;;;;;;;;;;4928874;28;8415;-84
2023/07/02 03:00:55;;;;;;;;;;;;;;;;;;4929355;28;7155;-85
2023/07/02 03:03:21;;;;;;;;;;;;;;;;;;4928498;29;8400;-88
2023/07/02 03:05:48;;;;;;;;;;;;;;;;;;4929754;28;7154;-84
2023/07/02 03:08:14;;;;;;;;;;;;;;;;;;4929679;28;7211;-84
2023/07/02 03:10:40;;;;;;;;;;;;;;;;;;4930848;28;8343;-84
2023/07/02 03:13:05;;;;;;;;;;;;;;;;;;4931618;28;8556;-85
2023/07/02 03:15:31;;;;;;;;;;;;;;;;;;4929144;28;8697;-84
2023/07/02 03:17:56;;;;;;;;;;;;;;;;;;4928896;28;7462;-85
2023/07/02 03:20:22;;;;;;;;;;;;;;;;;;4930760;28;7039;-85
2023/07/02 03:22:47;;;;;;;;;;;;;;;;;;4929544;28;8418;-85
2023/07/02 03:25:13;;;;;;;;;;;;;;;;;;4928852;28;7173;-84
2023/07/02 03:27:38;;;;;;;;;;;;;;;;;;4930621;28;8364;-85
2023/07/02 03:30:05;;;;;;;;;;;;;;;;;;4928179;28;8389;-84
2023/07/02 03:32:30;;;;;;;;;;;;;;;;;;4929511;28;7277;-85
2023/07/02 03:34:56;;;;;;;;;;;;;;;;;;4928941;28;8412;-85
2023/07/02 03:37:21;;;;;;;;;;;;;;;;;;4928286;28;8696;-85
2023/07/02 03:39:46;;;;;;;;;;;;;;;;;;4929016;29;7245;-85
2023/07/02 03:42:12;;;;;;;;;;;;;;;;;;4928588;28;7059;-85
2023/07/02 03:44:38;;;;;;;;;;;;;;;;;;4927713;29;8406;-86
2023/07/02 03:47:03;;;;;;;;;;;;;;;;;;4931079;28;7264;-85
2023/07/02 03:49:29;;;;;;;;;;;;;;;;;;4929494;28;8403;-86
2023/07/02 03:51:54;;;;;;;;;;;;;;;;;;4930177;28;7262;-85
2023/07/02 03:54:20;;;;;;;;;;;;;;;;;;4928407;28;8706;-85
2023/07/02 03:56:46;;;;;;;;;;;;;;;;;;4930713;28;8699;-85
2023/07/02 03:59:11;;;;;;;;;;;;;;;;;;4928285;28;8391;-85
2023/07/02 04:01:37;;;;;;;;;;;;;;;;;;4927729;28;7468;-85
2023/07/02 04:04:02;;;;;;;;;;;;;;;;;;4930516;28;7411;-85
2023/07/02 04:06:28;;;;;;;;;;;;;;;;;;4929737;28;8423;-93
2023/07/02 04:08:53;;;;;;;;;;;;;;;;;;4936471;29;7227;-81
2023/07/02 04:11:19;;;;;;;;;;;;;;;;;;4929290;28;8449;-81
2023/07/02 04:13:44;;;;;;;;;;;;;;;;;;4928654;28;8821;-83
2023/07/02 04:16:10;;;;;;;;;;;;;;;;;;4930318;28;8702;-83
2023/07/02 04:18:35;;;;;;;;;;;;;;;;;;4938699;28;8421;-83
2023/07/02 04:21:02;;;;;;;;;;;;;;;;;;4938890;28;8420;-83
2023/07/02 04:23:27;;;;;;;;;;;;;;;;;;4938418;29;8443;-83
2023/07/02 04:25:52;;;;;;;;;;;;;;;;;;4938458;28;7037;-84
2023/07/02 04:28:19;;;;;;;;;;;;;;;;;;4938592;28;7267;-84
2023/07/02 04:30:44;;;;;;;;;;;;;;;;;;4938637;28;7640;-84
2023/07/02 04:33:13;;;;;;;;;;;;;;;;;;4938400;28;7146;-84
2023/07/02 04:35:39;;;;;;;;;;;;;;;;;;4938235;28;7076;-84
2023/07/02 04:38:05;;;;;;;;;;;;;;;;;;4938412;28;8617;-84
2023/07/02 04:40:30;;;;;;;;;;;;;;;;;;4938239;28;7052;-84
2023/07/02 04:42:59;;;;;;;;;;;;;;;;;;4938115;28;8466;-85
2023/07/02 04:45:25;;;;;;;;;;;;;;;;;;4938381;28;8660;-85
2023/07/02 04:47:51;;;;;;;;;;;;;;;;;;4938277;28;8747;-84
2023/07/02 04:50:18;;;;;;;;;;;;;;;;;;4938119;28;8439;-85
2023/07/02 04:52:44;;;;;;;;;;;;;;;;;;4937891;28;7205;-84
2023/07/02 04:55:11;;;;;;;;;;;;;;;;;;4938363;28;8527;-85
2023/07/02 04:57:37;;;;;;;;;;;;;;;;;;4938285;29;8492;-84
2023/07/02 05:00:05;;;;;;;;;;;;;;;;;;4938479;29;8535;-85
2023/07/02 05:02:31;;;;;;;;;;;;;;;;;;4938249;29;8567;-84
2023/07/02 05:04:57;;;;;;;;;;;;;;;;;;4937874;29;8474;-84
2023/07/02 05:07:23;;;;;;;;;;;;;;;;;;4938291;29;7072;-84
2023/07/02 05:09:51;;;;;;;;;;;;;;;;;;4937751;29;8503;-84
2023/07/02 05:12:17;;;;;;;;;;;;;;;;;;4938162;29;7500;-85
2023/07/02 05:14:43;;;;;;;;;;;;;;;;;;4937949;29;7128;-84
2023/07/02 05:17:08;;;;;;;;;;;;;;;;;;4937945;29;7182;-84
2023/07/02 05:19:34;;;;;;;;;;;;;;;;;;4937906;29;8507;-85
2023/07/02 05:21:59;;;;;;;;;;;;;;;;;;4938093;29;8541;-85
2023/07/02 05:24:25;;;;;;;;;;;;;;;;;;4937901;29;7230;-84
2023/07/02 05:26:50;;;;;;;;;;;;;;;;;;4937730;29;9454;-84
2023/07/02 05:29:16;;;;;;;;;;;;;;;;;;4937754;29;8356;-85
2023/07/02 05:31:42;;;;;;;;;;;;;;;;;;4938142;29;8502;-84
2023/07/02 05:34:08;;;;;;;;;;;;;;;;;;4937853;29;8492;-84
2023/07/02 05:36:34;;;;;;;;;;;;;;;;;;4937690;29;8517;-85
2023/07/02 05:39:00;;;;;;;;;;;;;;;;;;4937764;29;8912;-84
2023/07/02 05:41:30;;;;;;;;;;;;;;;;;;4937786;29;7246;-85
2023/07/02 05:43:57;;;;;;;;;;;;;;;;;;4937755;29;7150;-82
2023/07/02 05:46:22;;;;;;;;;;;;;;;;;;4937914;29;8514;-82
2023/07/02 05:48:48;;;;;;;;;;;;;;;;;;4938020;29;8722;-82
2023/07/02 05:51:14;;;;;;;;;;;;;;;;;;4937955;29;8583;-83
2023/07/02 05:53:39;;;;;;;;;;;;;;;;;;4937730;29;9773;-82
2023/07/02 05:56:05;;;;;;;;;;;;;;;;;;4937444;29;8497;-82
2023/07/02 05:58:30;;;;;;;;;;;;;;;;;;4937602;29;8530;-82
2023/07/02 06:00:56;;;;;;;;;;;;;;;;;;4937445;29;8463;-82
2023/07/02 06:03:21;;;;;;;;;;;;;;;;;;4937626;28;8527;-83
2023/07/02 06:05:48;;;;;;;;;;;;;;;;;;4951025;28;8418;-91
2023/07/02 06:08:14;;;;;;;;;;;;;;;;;;4951922;28;8948;-90
2023/07/02 06:10:39;;;;;;;;;;;;;;;;;;4943665;28;7352;-83
2023/07/02 06:13:05;;;;;;;;;;;;;;;;;;4940424;28;8512;-84
2023/07/02 06:15:30;;;;;;;;;;;;;;;;;;4940744;28;8628;-83
2023/07/02 06:17:56;;;;;;;;;;;;;;;;;;4940895;28;7271;-83
2023/07/02 06:20:22;;;;;;;;;;;;;;;;;;4940674;28;8471;-84
2023/07/02 06:22:47;;;;;;;;;;;;;;;;;;4957737;28;7158;-83
2023/07/02 06:25:13;;;;;;;;;;;;;;;;;;4940470;28;7154;-83
2023/07/02 06:27:39;;;;;;;;;;;;;;;;;;4940666;28;8541;-83
2023/07/02 06:30:06;;;;;;;;;;;;;;;;;;4940502;28;7370;-84
2023/07/02 06:32:31;;;;;;;;;;;;;;;;;;4940342;28;9012;-83
2023/07/02 06:34:57;;;;;;;;;;;;;;;;;;4940681;28;8414;-83
2023/07/02 06:37:22;;;;;;;;;;;;;;;;;;4940183;28;8493;-83
2023/07/02 06:39:48;;;;;;;;;;;;;;;;;;4940414;28;8454;-83
2023/07/02 06:42:13;;;;;;;;;;;;;;;;;;4940008;28;8699;-83
2023/07/02 06:44:39;;;;;;;;;;;;;;;;;;4940231;28;8457;-83
2023/07/02 06:47:04;;;;;;;;;;;;;;;;;;4940100;28;7286;-83
2023/07/02 06:49:30;;;;;;;;;;;;;;;;;;4940221;28;8571;-83
2023/07/02 06:51:56;;;;;;;;;;;;;;;;;;4940001;28;8800;-83
2023/07/02 06:54:21;;;;;;;;;;;;;;;;;;4939989;28;8600;-83
2023/07/02 06:56:47;;;;;;;;;;;;;;;;;;4940180;28;7162;-83
2023/07/02 06:59:18;;;;;;;;;;;;;;;;;;4939952;28;8709;-83
2023/07/02 07:01:43;;;;;;;;;;;;;;;;;;4939687;28;8529;-83
2023/07/02 07:04:09;;;;;;;;;;;;;;;;;;4939827;28;8838;-83
2023/07/02 07:06:35;;;;;;;;;;;;;;;;;;4939884;28;8540;-84
2023/07/02 07:09:00;;;;;;;;;;;;;;;;;;4940793;28;8705;-86
2023/07/02 07:11:26;;;;;;;;;;;;;;;;;;4937011;28;8529;-80
2023/07/02 07:13:51;;;;;;;;;;;;;;;;;;4938468;28;8573;-80
2023/07/02 07:16:17;;;;;;;;;;;;;;;;;;4938457;28;8520;-86
2023/07/02 07:18:43;;;;;;;;;;;;;;;;;;4939073;28;9279;-85
2023/07/02 07:21:09;;;;;;;;;;;;;;;;;;4939287;28;7197;-86
2023/07/02 07:23:35;;;;;;;;;;;;;;;;;;4939549;28;8488;-86
2023/07/02 07:26:00;;;;;;;;;;;;;;;;;;4936848;28;8588;-88
2023/07/02 07:28:26;;;;;;;;;;;;;;;;;;4939422;28;8380;-88
2023/07/02 07:30:52;;;;;;;;;;;;;;;;;;4937353;28;6896;-90
2023/07/02 07:33:17;;;;;;;;;;;;;;;;;;4939828;28;8458;-90
2023/07/02 07:35:43;;;;;;;;;;;;;;;;;;4939580;28;7181;-90
2023/07/02 07:38:09;;;;;;;;;;;;;;;;;;4939109;28;8562;-89
2023/07/02 07:40:34;;;;;;;;;;;;;;;;;;4939195;28;9099;-88
2023/07/02 07:43:00;;;;;;;;;;;;;;;;;;4939112;28;7279;-89
2023/07/02 07:45:25;;;;;;;;;;;;;;;;;;4939514;28;7071;-88
2023/07/02 07:47:51;;;;;;;;;;;;;;;;;;4938958;28;8385;-88
2023/07/02 07:50:16;;;;;;;;;;;;;;;;;;4939046;28;8741;-88
2023/07/02 07:52:43;;;;;;;;;;;;;;;;;;4939145;28;8521;-88
2023/07/02 07:55:09;;;;;;;;;;;;;;;;;;4938746;28;8817;-87
2023/07/02 07:57:36;;;;;;;;;;;;;;;;;;4939292;28;8394;-88
2023/07/02 08:00:04;;;;;;;;;;;;;;;;;;4938742;28;7228;-88
2023/07/02 08:02:30;;;;;;;;;;;;;;;;;;4938957;28;8719;-87
2023/07/02 08:04:55;;;;;;;;;;;;;;;;;;4938806;28;9768;-88
2023/07/02 08:07:20;;;;;;;;;;;;;;;;;;4938605;28;8580;-88
2023/07/02 08:09:46;;;;;;;;;;;;;;;;;;4938607;28;7260;-87
2023/07/02 08:12:11;;;;;;;;;;;;;;;;;;4931495;29;9095;-88
2023/07/02 08:14:37;;;;;;;;;;;;;;;;;;4919420;29;7110;-89
2023/07/02 08:17:02;;;;;;;;;;;;;;;;;;4919777;29;8651;-89
2023/07/02 08:19:28;;;;;;;;;;;;;;;;;;4919771;29;8372;-88
2023/07/02 08:21:53;;;;;;;;;;;;;;;;;;4919429;29;9411;-89
2023/07/02 08:24:19;;;;;;;;;;;;;;;;;;4919295;29;7166;-88
2023/07/02 08:26:44;;;;;;;;;;;;;;;;;;4918963;29;8456;-87
2023/07/02 08:29:11;;;;;;;;;;;;;;;;;;4933485;28;8885;-87
2023/07/02 08:31:36;;;;;;;;;;;;;;;;;;4938807;29;8471;-90
2023/07/02 08:34:02;;;;;;;;;;;;;;;;;;4938998;28;8658;-89
2023/07/02 08:36:28;;;;;;;;;;;;;;;;;;4938663;29;8829;-87
2023/07/02 08:38:53;;;;;;;;;;;;;;;;;;4938495;28;8439;-88
2023/07/02 08:41:21;;;;;;;;;;;;;;;;;;4938624;28;8440;-88
2023/07/02 08:43:48;;;;;;;;;;;;;;;;;;4938212;28;8522;-87
2023/07/02 08:46:18;;;;;;;;;;;;;;;;;;4937946;28;8409;-87
2023/07/02 08:48:43;;;;;;;;;;;;;;;;;;4938299;28;8468;-89
2023/07/02 08:51:09;;;;;;;;;;;;;;;;;;4938640;28;8490;-88
2023/07/02 08:53:34;;;;;;;;;;;;;;;;;;4938157;28;8391;-88
2023/07/02 08:56:01;;;;;;;;;;;;;;;;;;4936508;28;8402;-90
2023/07/02 08:58:26;;;;;;;;;;;;;;;;;;4938154;29;8436;-89
2023/07/02 09:01:07;;;;;;;;;;;;;;;;;;4937868;29;9267;-89
2023/07/02 09:03:33;;;;;;;;;;;;;;;;;;4938584;29;7104;-87
2023/07/02 09:05:59;;;;;;;;;;;;;;;;;;4938339;29;7026;-90
2023/07/02 09:08:25;;;;;;;;;;;;;;;;;;4938150;29;8451;-89
2023/07/02 09:11:07;;;;;;;;;;;;;;;;;;4938159;29;7411;-88
2023/07/02 09:13:43;;;;;;;;;;;;;;;;;;4954301;29;8292;-85
2023/07/02 09:16:21;;;;;;;;;;;;;;;;;;4938038;29;7063;-85
2023/07/02 09:18:56;;;;;;;;;;;;;;;;;;4938063;29;8528;-86
2023/07/02 09:21:21;;;;;;;;;;;;;;;;;;4954228;29;8675;-88
2023/07/02 09:23:47;;;;;;;;;;;;;;;;;;4937503;29;7032;-88
2023/07/02 09:26:19;;;;;;;;;;;;;;;;;;4937773;29;8462;-87
2023/07/02 09:28:45;;;;;;;;;;;;;;;;;;4937721;29;8413;-87
2023/07/02 09:31:10;;;;;;;;;;;;;;;;;;4938022;29;7097;-88
2023/07/02 09:33:36;;;;;;;;;;;;;;;;;;4938300;29;7106;-88
2023/07/02 09:36:03;;;;;;;;;;;;;;;;;;4937701;29;8704;-89
2023/07/02 09:38:29;;;;;;;;;;;;;;;;;;4938582;28;8874;-89
2023/07/02 09:40:54;;;;;;;;;;;;;;;;;;4942009;28;8483;-90
2023/07/02 09:43:21;;;;;;;;;;;;;;;;;;4941823;28;7015;-88
2023/07/02 09:45:48;;;;;;;;;;;;;;;;;;4941943;28;6861;-89
2023/07/02 09:48:15;;;;;;;;;;;;;;;;;;4941696;28;7233;-88
2023/07/02 09:50:42;;;;;;;;;;;;;;;;;;4941192;28;7071;-90
2023/07/02 09:53:08;;;;;;;;;;;;;;;;;;4941234;28;8455;-89
2023/07/02 09:55:33;;;;;;;;;;;;;;;;;;4940365;28;6958;-90
2023/07/02 09:57:59;;;;;;;;;;;;;;;;;;4940955;28;8815;-90
2023/07/02 10:00:25;;;;;;;;;;;;;;;;;;4940934;28;8402;-90
2023/07/02 10:02:50;;;;;;;;;;;;;;;;;;4940951;28;8559;-90
2023/07/02 10:05:45;;;;;;;;;;;;;;;;;;4941230;28;8765;-90
2023/07/02 10:08:13;;;;;;;;;;;;;;;;;;4925866;29;8366;-89
2023/07/02 10:10:39;;;;;;;;;;;;;;;;;;4933601;28;8454;-89
2023/07/02 10:13:05;;;;;;;;;;;;;;;;;;4931946;29;8834;-90
2023/07/02 10:15:31;;;;;;;;;;;;;;;;;;4933340;28;7190;-89
2023/07/02 10:17:58;;;;;;;;;;;;;;;;;;4940831;28;7162;-89
2023/07/02 10:20:37;;;;;;;;;;;;;;;;;;4941125;28;8677;-89
2023/07/02 10:23:04;;;;;;;;;;;;;;;;;;4940645;28;8507;-90
2023/07/02 10:25:31;;;;;;;;;;;;;;;;;;4940906;28;8828;-89
2023/07/02 10:27:57;;;;;;;;;;;;;;;;;;4941525;28;8466;-93
2023/07/02 10:30:31;;;;;;;;;;;;;;;;;;4942475;28;8718;-91
2023/07/02 10:33:08;;;;;;;;;;;;;;;;;;4965138;28;7085;-92
2023/07/02 10:35:34;;;;;;;;;;;;;;;;;;4949373;28;8358;-92
2023/07/02 10:38:00;;;;;;;;;;;;;;;;;;4943166;28;8601;-92
2023/07/02 10:40:26;;;;;;;;;;;;;;;;;;4943800;28;8739;-91
2023/07/02 10:42:53;;;;;;;;;;;;;;;;;;4942865;28;8453;-93
2023/07/02 10:45:19;;;;;;;;;;;;;;;;;;4940386;28;7314;-93
2023/07/02 10:47:45;;;;;;;;;;;;;;;;;;4940550;28;8447;-94
2023/07/02 10:50:14;;;;;;;;;;;;;;;;;;4941011;28;8751;-95
2023/07/02 10:52:40;;;;;;;;;;;;;;;;;;4957650;28;8423;-94
2023/07/02 10:55:06;;;;;;;;;;;;;;;;;;4942945;28;6951;-94
2023/07/02 10:57:31;;;;;;;;;;;;;;;;;;4946313;28;7090;-90
2023/07/02 11:00:04;;;;;;;;;;;;;;;;;;4947935;28;7006;-92
2023/07/02 11:02:34;;;;;;;;;;;;;;;;;;4941885;28;8522;-92
2023/07/02 11:05:00;;;;;;;;;;;;;;;;;;4945886;28;9271;-91
2023/07/02 11:07:25;;;;;;;;;;;;;;;;;;4940789;28;8409;-91
2023/07/02 11:09:51;;;;;;;;;;;;;;;;;;4940161;28;8457;-91
2023/07/02 11:12:16;;;;;;;;;;;;;;;;;;4940241;28;8601;-91
2023/07/02 11:14:42;;;;;;;;;;;;;;;;;;4940341;28;8397;-88
2023/07/02 11:17:08;;;;;;;;;;;;;;;;;;4939645;28;8919;-89
2023/07/02 11:19:34;;;;;;;;;;;;;;;;;;4939520;28;8429;-90
2023/07/02 11:22:02;;;;;;;;;;;;;;;;;;4939720;28;8352;-90
2023/07/02 11:24:29;;;;;;;;;;;;;;;;;;4940209;28;8482;-89
2023/07/02 11:26:55;;;;;;;;;;;;;;;;;;4939765;28;8342;-89
2023/07/02 11:29:21;;;;;;;;;;;;;;;;;;4939645;28;8938;-89
2023/07/02 11:31:46;;;;;;;;;;;;;;;;;;4939714;28;8418;-88
2023/07/02 11:34:13;;;;;;;;;;;;;;;;;;4939544;28;8452;-89
2023/07/02 11:36:38;;;;;;;;;;;;;;;;;;4939452;28;7269;-89
2023/07/02 11:39:05;;;;;;;;;;;;;;;;;;4939586;28;7180;-90
2023/07/02 11:41:41;;;;;;;;;;;;;;;;;;4939282;28;9355;-89
2023/07/02 11:44:07;;;;;;;;;;;;;;;;;;4938861;28;8348;-88
2023/07/02 11:46:32;;;;;;;;;;;;;;;;;;4955688;28;7060;-89
2023/07/02 11:49:00;;;;;;;;;;;;;;;;;;4939372;28;8482;-90
2023/07/02 11:51:31;;;;;;;;;;;;;;;;;;4938973;28;8446;-91
2023/07/02 11:54:14;;;;;;;;;;;;;;;;;;;;;
2023/07/02 11:56:47;;;;;;;;;;;;;;;;;;4935433;29;7195;-89
2023/07/02 11:59:12;;;;;;;;;;;;;;;;;;4919760;29;8254;-90
2023/07/02 12:01:41;;;;;;;;;;;;;;;;;;4935694;29;8540;-90
2023/07/02 12:04:29;;;;;;;;;;;;;;;;;;4935805;29;7078;-88
2023/07/02 12:06:55;;;;;;;;;;;;;;;;;;4909796;29;7251;-90
2023/07/02 12:09:21;;;;;;;;;;;;;;;;;;4937088;29;8316;-93
2023/07/02 12:11:49;;;;;;;;;;;;;;;;;;4941054;29;7400;-88
2023/07/02 12:14:15;;;;;;;;;;;;;;;;;;4937527;29;8392;-90
2023/07/02 12:16:44;;;;;;;;;;;;;;;;;;4939426;29;8492;-92
2023/07/02 12:19:15;;;;;;;;;;;;;;;;;;4945249;29;8533;-87
2023/07/02 12:21:41;;;;;;;;;;;;;;;;;;4946373;29;7054;-90
2023/07/02 12:24:16;;;;;;;;;;;;;;;;;;4947358;29;8419;-87
2023/07/02 12:26:52;;;;;;;;;;;;;;;;;;;;;
2023/07/02 12:29:18;;;;;;;;;;;;;;;;;;4945644;29;6942;-87
2023/07/02 12:31:47;;;;;;;;;;;;;;;;;;4945484;29;8291;-89
2023/07/02 12:34:17;;;;;;;;;;;;;;;;;;4930704;29;6889;-87
2023/07/02 12:36:46;;;;;;;;;;;;;;;;;;4929141;29;7293;-86
2023/07/02 12:39:12;;;;;;;;;;;;;;;;;;4947075;29;6930;-85
2023/07/02 12:41:44;;;;;;;;;;;;;;;;;;4942375;29;6889;-93
2023/07/02 12:44:15;;;;;;;;;;;;;;;;;;4942792;29;7072;-88
2023/07/02 12:46:54;;;;;;;;;;;;;;;;;;;;;
2023/07/02 12:49:23;;;;;;;;;;;;;;;;;;4948068;29;7984;-93
2023/07/02 12:51:59;;;;;;;;;;;;;;;;;;4977467;23;6880;-94
2023/07/02 12:54:27;;;;;;;;;;;;;;;;;;4949738;28;7053;-95
2023/07/02 12:57:21;;;;;;;;;;;;;;;;;;4961852;28;6899;-88
2023/07/02 12:59:59;;;;;;;;;;;;;;;;;;4947133;28;7093;-93
2023/07/02 13:02:33;;;;;;;;;;;;;;;;;;4927801;29;6897;-90
2023/07/02 13:05:02;;;;;;;;;;;;;;;;;;4939971;29;8463;-89
2023/07/02 13:07:41;;;;;;;;;;;;;;;;;;4962932;28;7201;-89
2023/07/02 13:10:09;;;;;;;;;;;;;;;;;;4952483;28;6892;-91
2023/07/02 13:12:43;;;;;;;;;;;;;;;;;;4920279;29;6957;-89
2023/07/02 13:15:11;;;;;;;;;;;;;;;;;;4929361;29;6982;-92
2023/07/02 13:17:47;;;;;;;;;;;;;;;;;;;;;
2023/07/02 13:20:13;;;;;;;;;;;;;;;;;;4945580;28;7181;-92
2023/07/02 13:22:47;;;;;;;;;;;;;;;;;;4955941;28;7878;-91
2023/07/02 13:28:07;;;;;;;;;;;;;;;;;;4956178;28;6954;-90
2023/07/02 13:30:47;;;;;;;;;;;;;;;;;;4961826;28;8541;-86
2023/07/02 13:33:15;;;;;;;;;;;;;;;;;;4959827;28;8451;-88
2023/07/02 13:35:43;;;;;;;;;;;;;;;;;;4958064;28;8386;-90
2023/07/02 13:38:09;;;;;;;;;;;;;;;;;;4956749;28;8308;-88
2023/07/02 13:40:34;;;;;;;;;;;;;;;;;;4954203;28;7053;-88
2023/07/02 13:43:00;;;;;;;;;;;;;;;;;;4938120;29;7047;-89
2023/07/02 13:45:25;;;;;;;;;;;;;;;;;;4954318;28;8427;-87
2023/07/02 13:47:51;;;;;;;;;;;;;;;;;;4954611;28;8465;-88
2023/07/02 13:50:16;;;;;;;;;;;;;;;;;;4954765;28;8895;-87
2023/07/02 13:52:42;;;;;;;;;;;;;;;;;;4954301;28;8414;-88
2023/07/02 13:55:07;;;;;;;;;;;;;;;;;;4954529;28;8400;-87
2023/07/02 13:57:33;;;;;;;;;;;;;;;;;;4954303;28;8657;-88
2023/07/02 13:59:58;;;;;;;;;;;;;;;;;;4944799;28;8925;-88
2023/07/02 14:02:24;;;;;;;;;;;;;;;;;;4951801;28;8481;-86
2023/07/02 14:04:50;;;;;;;;;;;;;;;;;;4938798;29;7473;-91
2023/07/02 14:07:15;;;;;;;;;;;;;;;;;;4937447;29;8669;-87
2023/07/02 14:09:41;;;;;;;;;;;;;;;;;;4937040;29;7441;-87
2023/07/02 14:12:06;;;;;;;;;;;;;;;;;;4937774;29;7175;-86
2023/07/02 14:14:32;;;;;;;;;;;;;;;;;;4936699;29;8729;-88
2023/07/02 14:16:57;;;;;;;;;;;;;;;;;;4936541;29;8623;-87
2023/07/02 14:19:23;;;;;;;;;;;;;;;;;;4936843;29;8341;-87
2023/07/02 14:21:48;;;;;;;;;;;;;;;;;;4936080;29;8316;-88
2023/07/02 14:24:14;;;;;;;;;;;;;;;;;;4932232;29;7135;-88
2023/07/02 14:26:40;;;;;;;;;;;;;;;;;;4942574;28;7265;-88
2023/07/02 14:29:05;;;;;;;;;;;;;;;;;;4932931;29;7190;-88
2023/07/02 14:31:31;;;;;;;;;;;;;;;;;;4918326;29;8406;-87
2023/07/02 14:33:57;;;;;;;;;;;;;;;;;;4922060;29;7012;-87
2023/07/02 14:36:22;;;;;;;;;;;;;;;;;;4951204;28;8412;-86
2023/07/02 14:38:48;;;;;;;;;;;;;;;;;;4918094;29;8907;-87
2023/07/02 14:41:13;;;;;;;;;;;;;;;;;;4934357;29;8499;-88
2023/07/02 14:43:39;;;;;;;;;;;;;;;;;;4953350;28;8790;-88
2023/07/02 14:46:05;;;;;;;;;;;;;;;;;;4932393;28;8727;-88
2023/07/02 14:48:31;;;;;;;;;;;;;;;;;;4936361;29;8705;-86
2023/07/02 14:50:58;;;;;;;;;;;;;;;;;;4936461;29;8609;-87
2023/07/02 14:53:25;;;;;;;;;;;;;;;;;;4936410;29;7271;-87
2023/07/02 14:55:54;;;;;;;;;;;;;;;;;;4936249;29;7204;-88
2023/07/02 14:58:19;;;;;;;;;;;;;;;;;;4931808;29;7369;-87
2023/07/02 15:00:45;;;;;;;;;;;;;;;;;;4917718;29;9572;-87
2023/07/02 15:03:10;;;;;;;;;;;;;;;;;;4933766;29;7256;-88
2023/07/02 15:05:36;;;;;;;;;;;;;;;;;;4925146;29;8672;-87
2023/07/02 15:08:01;;;;;;;;;;;;;;;;;;4936318;29;7170;-87
2023/07/02 15:10:27;;;;;;;;;;;;;;;;;;4936537;29;8404;-88
2023/07/02 15:12:52;;;;;;;;;;;;;;;;;;4952293;28;8512;-86
2023/07/02 15:15:18;;;;;;;;;;;;;;;;;;4950202;28;8504;-88
2023/07/02 15:17:43;;;;;;;;;;;;;;;;;;4919580;29;7419;-86
2023/07/02 15:20:09;;;;;;;;;;;;;;;;;;4931534;29;8431;-88
2023/07/02 15:22:35;;;;;;;;;;;;;;;;;;4932534;29;8479;-88
2023/07/02 15:25:01;;;;;;;;;;;;;;;;;;4935472;29;7461;-89
2023/07/02 15:27:26;;;;;;;;;;;;;;;;;;4936015;29;7767;-88
2023/07/02 15:29:52;;;;;;;;;;;;;;;;;;4936257;29;8337;-89
2023/07/02 15:32:17;;;;;;;;;;;;;;;;;;4935430;29;8558;-88
2023/07/02 15:34:43;;;;;;;;;;;;;;;;;;4936206;29;8396;-88
2023/07/02 15:37:08;;;;;;;;;;;;;;;;;;4934887;29;8438;-88
2023/07/02 15:39:34;;;;;;;;;;;;;;;;;;4934544;29;8784;-87
2023/07/02 15:42:00;;;;;;;;;;;;;;;;;;4935519;29;8550;-86
2023/07/02 15:44:26;;;;;;;;;;;;;;;;;;4934880;29;7425;-89
2023/07/02 15:46:52;;;;;;;;;;;;;;;;;;4934960;29;8742;-89
2023/07/02 15:49:17;;;;;;;;;;;;;;;;;;4934991;29;8307;-88
2023/07/02 15:51:43;;;;;;;;;;;;;;;;;;4934788;29;8656;-88
2023/07/02 15:54:09;;;;;;;;;;;;;;;;;;4935707;29;8665;-88
2023/07/02 15:56:35;;;;;;;;;;;;;;;;;;4935264;29;8559;-88
2023/07/02 15:59:01;;;;;;;;;;;;;;;;;;4929678;29;8421;-88
2023/07/02 16:01:27;;;;;;;;;;;;;;;;;;4935021;28;7101;-86
2023/07/02 16:03:54;;;;;;;;;;;;;;;;;;4917013;29;8480;-88
2023/07/02 16:06:20;;;;;;;;;;;;;;;;;;4927675;29;8437;-87
2023/07/02 16:08:46;;;;;;;;;;;;;;;;;;4935284;29;6837;-86
2023/07/02 16:11:13;;;;;;;;;;;;;;;;;;4935392;29;8620;-87
2023/07/02 16:13:43;;;;;;;;;;;;;;;;;;4935348;29;7139;-87
2023/07/02 16:16:09;;;;;;;;;;;;;;;;;;4934937;29;7367;-86
2023/07/02 16:18:35;;;;;;;;;;;;;;;;;;4935111;29;7043;-87
2023/07/02 16:21:02;;;;;;;;;;;;;;;;;;4935448;29;7319;-86
2023/07/02 16:23:28;;;;;;;;;;;;;;;;;;4935383;29;8442;-86
2023/07/02 16:25:55;;;;;;;;;;;;;;;;;;4934817;29;7090;-88
2023/07/02 16:28:21;;;;;;;;;;;;;;;;;;4935163;29;8598;-88
2023/07/02 16:30:47;;;;;;;;;;;;;;;;;;4935432;29;7414;-86
2023/07/02 16:33:13;;;;;;;;;;;;;;;;;;4935013;29;7190;-87
2023/07/02 16:35:38;;;;;;;;;;;;;;;;;;4934608;29;8674;-87
2023/07/02 16:38:05;;;;;;;;;;;;;;;;;;4935156;29;7439;-86
2023/07/02 16:40:31;;;;;;;;;;;;;;;;;;4934794;29;7960;-86
2023/07/02 16:42:56;;;;;;;;;;;;;;;;;;4934812;29;8427;-88
2023/07/02 16:45:21;;;;;;;;;;;;;;;;;;4934574;29;8703;-88
2023/07/02 16:47:47;;;;;;;;;;;;;;;;;;4934834;29;8370;-87
2023/07/02 16:50:12;;;;;;;;;;;;;;;;;;4934977;29;8911;-88
2023/07/02 16:52:38;;;;;;;;;;;;;;;;;;4947084;28;8489;-87
2023/07/02 16:55:04;;;;;;;;;;;;;;;;;;4954131;28;8459;-86
2023/07/02 16:57:29;;;;;;;;;;;;;;;;;;4934882;28;8402;-86
2023/07/02 16:59:55;;;;;;;;;;;;;;;;;;4940872;28;8444;-87
2023/07/02 17:02:20;;;;;;;;;;;;;;;;;;4939126;28;8803;-88
2023/07/02 17:04:46;;;;;;;;;;;;;;;;;;4937535;28;8835;-88